Time;durP1;ratioP1;P1;durP2;ratioP2;P2;SDS_P1;SDS_P2;PMS_P1;PMS_P2;Temp;Humidity;BMP_temperature;BMP_pressure;BME280_temperature;BME280_humidity;BME280_pressure;Samples;Min_cycle;Max_cycle;Signal;HPM_P1;HPM_P2
2022/09/22 00:00:53;;;;;;;8.50;5.22;;;;;;;12.65;67.47;102625.03;6125383;23;20373;-42
2022/09/22 00:03:18;;;;;;;9.70;5.32;;;;;;;12.61;67.61;102631.91;6134309;23;20008;-41
2022/09/22 00:05:43;;;;;;;8.60;4.97;;;;;;;12.57;67.65;102628.28;6133604;23;20069;-42
2022/09/22 00:08:09;;;;;;;10.25;5.13;;;;;;;12.57;67.85;102620.44;6131831;23;20009;-42
2022/09/22 00:10:34;;;;;;;7.75;5.25;;;;;;;12.55;67.66;102616.00;6126880;23;20133;-42
2022/09/22 00:12:59;;;;;;;10.27;5.50;;;;;;;12.52;67.79;102614.16;6135197;23;20010;-41
2022/09/22 00:15:25;;;;;;;8.30;5.30;;;;;;;12.50;67.66;102613.22;6133499;23;20005;-41
2022/09/22 00:17:50;;;;;;;9.18;5.38;;;;;;;12.48;67.62;102607.06;6129885;23;20066;-41
2022/09/22 00:20:16;;;;;;;7.28;5.07;;;;;;;12.48;67.79;102603.56;6133061;23;20112;-42
2022/09/22 00:22:41;;;;;;;10.27;5.20;;;;;;;12.47;67.81;102607.91;6129629;23;20088;-42
2022/09/22 00:25:07;;;;;;;10.93;5.38;;;;;;;12.47;67.58;102605.28;6135975;23;20009;-43
2022/09/22 00:27:34;;;;;;;8.13;5.07;;;;;;;12.46;67.65;102607.84;6135349;23;20413;-42
2022/09/22 00:29:59;;;;;;;9.70;5.72;;;;;;;12.45;67.89;102606.94;6130413;23;20029;-41
2022/09/22 00:32:25;;;;;;;9.30;5.57;;;;;;;12.45;67.89;102604.34;6131934;23;20116;-42
2022/09/22 00:34:51;;;;;;;9.52;5.22;;;;;;;12.47;67.65;102607.00;6130290;23;20010;-42
2022/09/22 00:37:16;;;;;;;9.73;5.30;;;;;;;12.44;67.66;102599.94;6134298;23;20381;-41
2022/09/22 00:39:42;;;;;;;10.00;5.38;;;;;;;12.42;67.62;102593.78;6131247;23;20009;-42
2022/09/22 00:42:11;;;;;;;9.80;5.30;;;;;;;12.41;67.68;102598.97;6129927;23;20445;-42
2022/09/22 00:44:38;;;;;;;8.52;5.10;;;;;;;12.39;67.59;102596.28;6129310;23;20005;-42
2022/09/22 00:47:30;;;;;;;8.85;5.13;;;;;;;12.37;67.63;102602.31;6130896;23;20013;-42
2022/09/22 00:50:02;;;;;;;8.48;5.10;;;;;;;12.35;67.73;102597.03;6132971;23;20023;-42
2022/09/22 00:52:37;;;;;;;10.13;5.03;;;;;;;12.34;67.68;102596.97;6136610;23;20006;-42
2022/09/22 00:55:08;;;;;;;8.25;5.05;;;;;;;12.33;67.26;102597.81;6135595;23;20065;-42
2022/09/22 00:57:37;;;;;;;9.80;5.07;;;;;;;12.32;67.59;102588.22;6133298;23;20006;-41
2022/09/22 01:00:06;;;;;;;8.90;5.18;;;;;;;12.29;67.65;102591.59;6127857;23;20037;-42
2022/09/22 01:02:31;;;;;;;9.50;5.18;;;;;;;12.26;67.57;102582.78;6130822;23;20143;-42
2022/09/22 01:04:57;;;;;;;8.23;5.05;;;;;;;12.24;67.56;102585.31;6132506;23;20484;-42
2022/09/22 01:07:25;;;;;;;7.65;4.90;;;;;;;12.23;67.79;102587.88;6135815;23;20667;-42
2022/09/22 01:09:51;;;;;;;10.15;4.97;;;;;;;12.25;67.67;102578.38;6132318;23;20425;-41
2022/09/22 01:12:18;;;;;;;9.30;4.88;;;;;;;12.25;67.67;102583.59;6131920;23;20100;-42
2022/09/22 01:15:09;;;;;;;7.68;4.60;;;;;;;12.20;67.66;102579.09;6129927;23;20001;-42
2022/09/22 01:17:49;;;;;;;7.13;4.95;;;;;;;12.16;67.94;102579.84;6132913;23;20061;-41
2022/09/22 01:20:25;;;;;;;8.80;5.40;;;;;;;12.15;67.99;102569.31;6134940;23;20612;-42
2022/09/22 01:23:15;;;;;;;10.35;5.28;;;;;;;12.13;68.19;102568.41;6128635;23;20014;-42
2022/09/22 01:26:18;;;;;;;9.60;5.05;;;;;;;12.13;68.13;102565.78;6134051;23;20016;-42
2022/09/22 01:29:00;;;;;;;8.20;4.90;;;;;;;12.11;68.18;102556.97;6127033;23;20416;-41
2022/09/22 01:31:37;;;;;;;11.23;5.18;;;;;;;12.10;68.02;102553.47;6134031;23;20009;-41
2022/09/22 01:34:18;;;;;;;7.97;4.75;;;;;;;12.08;67.97;102555.16;6135470;23;20005;-42
2022/09/22 01:37:08;;;;;;;8.98;5.20;;;;;;;12.04;68.15;102553.28;6125131;23;20009;-41
2022/09/22 01:39:42;;;;;;;8.00;4.75;;;;;;;12.02;68.17;102549.72;6132785;23;20080;-42
2022/09/22 01:42:17;;;;;;;11.38;4.82;;;;;;;12.03;68.01;102546.25;6127549;23;20485;-41
2022/09/22 01:45:10;;;;;;;7.10;4.32;;;;;;;12.05;68.32;102543.72;6130356;23;20029;-42
2022/09/22 01:47:45;;;;;;;8.05;4.60;;;;;;;12.11;67.77;102549.13;6129123;23;20036;-42
2022/09/22 01:50:25;;;;;;;8.50;4.68;;;;;;;12.07;68.01;102547.28;6131329;23;20005;-41
2022/09/22 01:52:54;;;;;;;8.90;4.60;;;;;;;12.02;68.12;102538.34;6128247;23;20573;-41
2022/09/22 01:55:25;;;;;;;7.72;4.70;;;;;;;12.01;68.16;102544.44;6132441;23;20489;-42
2022/09/22 01:57:57;;;;;;;6.68;4.50;;;;;;;12.01;68.00;102534.00;6133084;23;20021;-42
2022/09/22 02:00:23;;;;;;;8.55;4.70;;;;;;;12.01;67.99;102531.38;6127413;23;20056;-42
2022/09/22 02:02:51;;;;;;;8.02;4.28;;;;;;;12.06;67.92;102524.56;6128658;23;20456;-42
2022/09/22 02:05:33;;;;;;;8.00;4.57;;;;;;;12.08;68.04;102521.16;6132755;23;20013;-41
2022/09/22 02:08:03;;;;;;;9.00;4.95;;;;;;;12.07;67.82;102526.34;6132081;23;20005;-42
2022/09/22 02:10:37;;;;;;;7.40;4.65;;;;;;;12.04;67.97;102521.00;6135186;23;20013;-41
2022/09/22 02:13:02;;;;;;;7.82;4.68;;;;;;;12.02;67.76;102520.06;6134926;23;20444;-42
2022/09/22 02:18:19;;;;;;;8.10;4.63;;;;;;;11.99;67.52;102519.97;6129791;23;20768;-42
2022/09/22 02:20:44;;;;;;;9.80;4.82;;;;;;;11.93;67.73;102518.03;6130523;23;20037;-42
2022/09/22 02:23:10;;;;;;;11.73;5.00;;;;;;;11.94;67.87;102525.06;6129734;23;20048;-42
2022/09/22 02:25:37;;;;;;;7.95;4.70;;;;;;;11.92;67.32;102516.25;6134798;23;20012;-42
2022/09/22 02:28:04;;;;;;;8.13;4.97;;;;;;;11.86;67.65;102516.06;6131513;23;20022;-42
2022/09/22 02:30:30;;;;;;;12.77;5.10;;;;;;;11.88;67.78;102524.84;6125324;23;20009;-42
2022/09/22 02:32:58;;;;;;;8.57;4.50;;;;;;;11.86;67.38;102516.06;6131904;23;20037;-42
2022/09/22 02:35:28;;;;;;;10.02;4.75;;;;;;;11.88;67.46;102514.41;6130171;23;20013;-42
2022/09/22 02:38:09;;;;;;;8.07;4.78;;;;;;;11.88;67.85;102519.63;6135839;23;20006;-42
2022/09/22 02:40:53;;;;;;;8.63;4.90;;;;;;;11.82;67.43;102516.78;6129863;23;20052;-41
2022/09/22 02:43:46;;;;;;;9.57;4.78;;;;;;;11.81;67.58;102514.13;6137256;23;20005;-42
2022/09/22 02:46:27;;;;;;;8.80;5.00;;;;;;;11.75;67.84;102517.41;6132839;23;20093;-42
2022/09/22 02:49:01;;;;;;;9.45;4.72;;;;;;;11.75;67.59;102512.19;6125911;23;20017;-41
2022/09/22 02:51:28;;;;;;;6.60;4.45;;;;;;;11.75;67.51;102510.47;6132289;23;20010;-41
2022/09/22 02:53:53;;;;;;;10.55;4.93;;;;;;;11.75;67.27;102506.97;6131486;23;20223;-41
2022/09/22 02:56:18;;;;;;;6.85;4.53;;;;;;;11.77;67.35;102511.38;6132922;23;20841;-42
2022/09/22 02:58:44;;;;;;;9.10;4.90;;;;;;;11.71;68.04;102500.69;6125057;23;20009;-42
2022/09/22 03:01:09;;;;;;;8.98;5.60;;;;;;;11.71;68.19;102503.31;6131937;23;20055;-42
2022/09/22 03:03:35;;;;;;;9.57;4.53;;;;;;;11.70;67.97;102500.66;6133513;23;20017;-41
2022/09/22 03:06:00;;;;;;;9.98;5.22;;;;;;;11.78;67.67;102501.81;6131081;23;20020;-42
2022/09/22 03:08:26;;;;;;;11.65;5.18;;;;;;;11.81;67.54;102499.34;6132611;23;20321;-42
2022/09/22 03:10:51;;;;;;;9.55;5.03;;;;;;;11.82;67.48;102497.63;6127722;23;20041;-41
2022/09/22 03:13:16;;;;;;;10.63;5.38;;;;;;;11.84;67.73;102496.81;6131320;23;20005;-41
2022/09/22 03:15:43;;;;;;;8.90;5.18;;;;;;;11.85;67.50;102495.97;6133310;23;20001;-41
2022/09/22 03:18:08;;;;;;;10.30;5.55;;;;;;;11.89;67.62;102495.28;6128880;23;20032;-42
2022/09/22 03:20:33;;;;;;;7.50;5.00;;;;;;;11.89;67.55;102495.28;6128262;23;20426;-42
2022/09/22 03:22:59;;;;;;;9.63;6.13;;;;;;;11.90;67.50;102485.66;6130362;23;20077;-41
2022/09/22 03:25:24;;;;;;;10.13;6.05;;;;;;;11.94;67.86;102487.56;6133241;23;20085;-41
2022/09/22 03:27:49;;;;;;;10.52;6.03;;;;;;;11.96;67.66;102493.72;6132689;23;20108;-41
2022/09/22 03:30:15;;;;;;;10.88;5.75;;;;;;;11.96;67.71;102488.50;6128603;23;20496;-42
2022/09/22 03:32:40;;;;;;;11.70;5.85;;;;;;;11.95;67.50;102486.75;6127519;23;20794;-41
2022/09/22 03:35:06;;;;;;;10.98;6.57;;;;;;;11.96;67.91;102481.53;6129184;23;20388;-42
2022/09/22 03:37:33;;;;;;;11.15;6.38;;;;;;;11.97;67.50;102475.47;6135388;23;20382;-41
2022/09/22 03:39:58;;;;;;;12.95;7.50;;;;;;;11.97;67.61;102475.47;6133536;23;20001;-41
2022/09/22 03:42:24;;;;;;;11.60;7.13;;;;;;;11.94;67.88;102480.63;6129958;23;20420;-41
2022/09/22 03:44:49;;;;;;;15.35;8.73;;;;;;;11.89;68.39;102481.31;6129151;23;20012;-41
2022/09/22 03:47:14;;;;;;;12.40;7.65;;;;;;;11.93;67.72;102484.06;6128506;23;20013;-41
2022/09/22 03:49:40;;;;;;;14.65;8.25;;;;;;;11.89;68.21;102478.69;6131859;23;20035;-41
2022/09/22 03:52:05;;;;;;;12.60;7.57;;;;;;;11.90;67.76;102480.44;6132050;23;20393;-42
2022/09/22 03:54:31;;;;;;;13.98;8.10;;;;;;;11.86;67.63;102478.56;6125322;23;20013;-42
2022/09/22 03:56:57;;;;;;;14.98;7.75;;;;;;;11.79;67.78;102475.75;6132953;23;20033;-42
2022/09/22 03:59:22;;;;;;;18.27;9.30;;;;;;;11.69;68.34;102477.97;6129372;23;20367;-42
2022/09/22 04:01:48;;;;;;;13.02;8.15;;;;;;;11.74;67.89;102476.44;6133545;23;20009;-42
2022/09/22 04:04:13;;;;;;;13.40;7.97;;;;;;;11.73;67.79;102475.56;6132742;23;20013;-41
2022/09/22 04:06:38;;;;;;;15.80;8.45;;;;;;;11.73;67.70;102478.16;6128085;23;20084;-41
2022/09/22 04:09:04;;;;;;;14.68;7.97;;;;;;;11.74;67.72;102471.22;6135496;23;20009;-41
2022/09/22 04:11:30;;;;;;;16.40;8.45;;;;;;;11.70;67.84;102472.81;6132537;23;20013;-41
2022/09/22 04:13:56;;;;;;;13.90;7.88;;;;;;;11.70;67.73;102475.44;6137383;23;20005;-41
2022/09/22 04:16:22;;;;;;;15.77;8.73;;;;;;;11.70;67.97;102469.31;6136434;23;20502;-41
2022/09/22 04:18:48;;;;;;;14.73;8.85;;;;;;;11.66;67.57;102468.31;6128153;23;20447;-42
2022/09/22 04:21:13;;;;;;;15.90;9.15;;;;;;;11.62;68.14;102471.66;6135886;23;20013;-41
2022/09/22 04:23:38;;;;;;;14.88;8.70;;;;;;;11.63;68.24;102472.53;6132373;23;20013;-41
2022/09/22 04:26:04;;;;;;;16.30;9.45;;;;;;;11.56;68.70;102467.94;6134072;23;20069;-42
2022/09/22 04:28:30;;;;;;;15.73;9.70;;;;;;;11.59;68.06;102470.63;6135061;23;20278;-42
2022/09/22 04:30:56;;;;;;;15.27;9.05;;;;;;;11.56;67.76;102467.94;6132578;23;20045;-41
2022/09/22 04:33:22;;;;;;;17.58;9.20;;;;;;;11.54;67.93;102461.75;6136872;23;20001;-42
2022/09/22 04:35:49;;;;;;;14.95;9.38;;;;;;;11.54;67.93;102467.00;6129866;23;20075;-42
2022/09/22 04:38:15;;;;;;;18.67;10.32;;;;;;;11.48;68.04;102462.44;6131947;23;20009;-43
2022/09/22 04:40:41;;;;;;;17.73;9.93;;;;;;;11.51;67.79;102470.41;6130669;23;20322;-42
2022/09/22 04:43:06;;;;;;;15.90;9.48;;;;;;;11.47;67.65;102462.38;6134946;23;20386;-41
2022/09/22 04:45:32;;;;;;;15.38;10.35;;;;;;;11.43;68.11;102465.72;6132694;23;20091;-37
2022/09/22 04:47:57;;;;;;;19.85;10.80;;;;;;;11.39;67.95;102464.75;6129560;23;20013;-36
2022/09/22 04:50:23;;;;;;;17.45;10.57;;;;;;;11.38;68.62;102461.25;6131331;23;20017;-38
2022/09/22 04:52:53;;;;;;;19.10;10.50;;;;;;;11.38;68.27;102460.34;6128692;23;20223;-43
2022/09/22 04:55:20;;;;;;;18.25;10.82;;;;;;;11.31;68.39;102451.41;6133799;23;20029;-38
2022/09/22 04:57:48;;;;;;;17.73;10.65;;;;;;;11.30;68.50;102452.25;6133007;23;20472;-37
2022/09/22 05:00:14;;;;;;;16.67;10.27;;;;;;;11.33;67.74;102454.09;6131823;23;20014;-37
2022/09/22 05:02:40;;;;;;;17.73;10.57;;;;;;;11.32;68.04;102450.59;6132071;23;20110;-38
2022/09/22 05:05:05;;;;;;;16.60;10.05;;;;;;;11.31;68.00;102455.75;6127161;23;20045;-37
2022/09/22 05:07:31;;;;;;;18.55;10.38;;;;;;;11.27;68.23;102454.75;6131572;23;20009;-38
2022/09/22 05:09:56;;;;;;;17.02;9.82;;;;;;;11.27;68.29;102453.88;6132451;23;20085;-38
2022/09/22 05:12:22;;;;;;;17.42;10.10;;;;;;;11.25;68.34;102452.91;6129810;23;20397;-38
2022/09/22 05:14:47;;;;;;;17.98;10.27;;;;;;;11.23;68.28;102454.56;6130402;23;20005;-36
2022/09/22 05:17:13;;;;;;;19.10;11.43;;;;;;;11.21;68.30;102456.25;6130710;23;20025;-36
2022/09/22 05:19:39;;;;;;;17.90;10.98;;;;;;;11.21;68.19;102451.94;6131391;23;20016;-41
2022/09/22 05:22:04;;;;;;;18.92;11.05;;;;;;;11.19;68.27;102452.69;6131435;23;20009;-37
2022/09/22 05:24:31;;;;;;;15.73;10.40;;;;;;;11.21;68.15;102451.94;6125881;23;20033;-37
2022/09/22 05:26:57;;;;;;;16.85;10.82;;;;;;;11.21;68.58;102453.66;6133693;23;20016;-38
2022/09/22 05:29:23;;;;;;;21.38;11.38;;;;;;;11.18;68.54;102454.41;6130717;23;20017;-38
2022/09/22 05:31:48;;;;;;;18.15;10.60;;;;;;;11.22;68.65;102455.44;6135641;23;20013;-38
2022/09/22 05:34:13;;;;;;;24.48;11.60;;;;;;;11.14;68.89;102468.19;6135903;23;20016;-37
2022/09/22 05:36:39;;;;;;;19.15;11.63;;;;;;;11.15;68.83;102458.66;6125356;23;20040;-37
2022/09/22 05:39:05;;;;;;;20.23;12.02;;;;;;;11.17;69.43;102459.56;6131746;23;20425;-38
2022/09/22 05:41:30;;;;;;;22.08;12.00;;;;;;;11.24;69.04;102458.97;6129476;23;20108;-39
2022/09/22 05:43:55;;;;;;;20.50;11.68;;;;;;;11.28;69.26;102460.88;6132346;23;20044;-37
2022/09/22 05:46:21;;;;;;;19.77;11.73;;;;;;;11.31;69.06;102460.97;6132249;23;20438;-39
2022/09/22 05:48:46;;;;;;;20.65;12.52;;;;;;;11.30;69.17;102464.41;6124457;23;20009;-36
2022/09/22 05:51:11;;;;;;;18.58;12.18;;;;;;;11.37;69.01;102466.41;6130318;23;20017;-36
2022/09/22 05:53:37;;;;;;;20.45;11.65;;;;;;;11.55;68.45;102476.59;6129400;23;20021;-37
2022/09/22 05:56:02;;;;;;;22.05;13.00;;;;;;;11.50;68.78;102471.22;6133862;23;20088;-38
2022/09/22 05:58:27;;;;;;;23.20;12.57;;;;;;;11.59;68.70;102466.31;6129522;23;20092;-37
2022/09/22 06:00:56;;;;;;;22.48;13.30;;;;;;;11.54;69.12;102467.00;6126132;23;20013;-38
2022/09/22 06:03:22;;;;;;;22.33;11.85;;;;;;;11.74;68.46;102466.00;6133913;23;20073;-38
2022/09/22 06:05:47;;;;;;;22.90;12.60;;;;;;;11.79;68.32;102467.03;6130949;23;20168;-37
2022/09/22 06:08:13;;;;;;;20.33;12.27;;;;;;;11.90;68.33;102465.66;6132028;23;20443;-38
2022/09/22 06:10:38;;;;;;;22.02;12.07;;;;;;;11.92;68.05;102468.31;6125149;23;20010;-38
2022/09/22 06:13:06;;;;;;;20.15;12.00;;;;;;;11.98;68.88;102458.97;6132180;23;20453;-38
2022/09/22 06:15:34;;;;;;;21.10;12.35;;;;;;;12.06;68.21;102460.13;6133687;23;20016;-39
2022/09/22 06:18:00;;;;;;;18.48;12.32;;;;;;;12.15;67.97;102463.00;6130568;23;20095;-38
2022/09/22 06:20:26;;;;;;;23.23;13.18;;;;;;;12.07;68.63;102468.84;6132631;23;20005;-38
2022/09/22 06:22:51;;;;;;;23.55;13.30;;;;;;;12.22;70.02;102457.97;6129526;23;20040;-38
2022/09/22 06:25:16;;;;;;;22.92;14.60;;;;;;;12.73;69.07;102456.09;6134750;23;20543;-37
2022/09/22 06:27:42;;;;;;;21.50;12.13;;;;;;;13.56;67.40;102454.97;6130480;23;20017;-38
2022/09/22 06:30:10;;;;;;;15.52;10.77;;;;;;;14.58;62.26;102440.88;6128584;23;20037;-37
2022/09/22 06:32:38;;;;;;;16.83;11.10;;;;;;;15.07;58.75;102439.25;6131310;23;20012;-36
2022/09/22 06:35:06;;;;;;;16.27;11.55;;;;;;;15.42;58.56;102453.97;6130524;23;20024;-38
2022/09/22 06:37:32;;;;;;;18.00;11.18;;;;;;;15.87;56.44;102453.03;6133031;23;20016;-39
2022/09/22 06:39:57;;;;;;;18.90;12.90;;;;;;;16.25;55.18;102448.38;6134343;23;20084;-37
2022/09/22 06:42:22;;;;;;;21.65;13.45;;;;;;;16.66;54.64;102443.75;6129751;23;20912;-37
2022/09/22 06:44:48;;;;;;;23.80;16.27;;;;;;;17.42;53.01;102444.66;6131979;23;20052;-39
2022/09/22 06:47:14;;;;;;;21.45;15.40;;;;;;;17.88;51.12;102439.81;6129128;23;20096;-39
2022/09/22 06:49:41;;;;;;;24.10;15.90;;;;;;;19.02;48.40;102436.13;6131989;23;20045;-38
2022/09/22 06:52:09;;;;;;;24.27;17.55;;;;;;;19.67;46.89;102443.34;6132602;23;20056;-37
2022/09/22 06:54:36;;;;;;;24.80;17.05;;;;;;;20.21;44.29;102432.72;6126329;23;20009;-36
2022/09/22 06:57:02;;;;;;;25.20;17.40;;;;;;;19.97;44.71;102430.13;6134936;23;20005;-38
2022/09/22 06:59:28;;;;;;;25.05;16.42;;;;;;;20.20;45.20;102424.78;6128675;23;20016;-36
2022/09/22 07:01:53;;;;;;;25.10;17.73;;;;;;;20.04;44.95;102426.59;6133310;23;20014;-37
2022/09/22 07:04:21;;;;;;;23.15;16.83;;;;;;;20.37;44.37;102423.00;6133691;23;20033;-36
2022/09/22 07:06:49;;;;;;;20.13;15.68;;;;;;;21.33;41.37;102423.50;6125322;23;20472;-35
2022/09/22 07:09:15;;;;;;;23.88;16.23;;;;;;;21.30;41.42;102428.81;6132010;23;20013;-36
2022/09/22 07:11:40;;;;;;;24.52;16.33;;;;;;;21.78;40.49;102424.03;6128458;23;20013;-36
2022/09/22 07:14:07;;;;;;;25.05;16.52;;;;;;;20.92;41.76;102423.69;6129707;23;20012;-36
2022/09/22 07:16:33;;;;;;;21.70;15.30;;;;;;;21.90;40.04;102431.91;6127070;23;20014;-35
2022/09/22 07:18:59;;;;;;;18.98;15.32;;;;;;;22.16;39.56;102421.97;6131803;23;20019;-35
2022/09/22 07:21:31;;;;;;;23.55;16.77;;;;;;;21.41;40.41;102419.00;6131770;23;20467;-36
2022/09/22 07:23:57;;;;;;;25.90;16.42;;;;;;;20.66;41.75;102415.00;6130524;23;20016;-37
2022/09/22 07:26:29;;;;;;;23.08;17.92;;;;;;;19.62;43.92;102423.94;6129551;23;20005;-37
2022/09/22 07:28:58;;;;;;;27.98;19.00;;;;;;;18.68;47.03;102419.25;6126281;23;20030;-38
2022/09/22 07:31:25;;;;;;;31.38;19.40;;;;;;;18.12;48.33;102418.88;6132983;23;20049;-37
2022/09/22 07:33:52;;;;;;;25.98;18.25;;;;;;;17.93;49.21;102417.88;6133740;23;20012;-37
2022/09/22 07:36:20;;;;;;;28.65;20.25;;;;;;;17.64;49.75;102424.66;6128594;23;20696;-35
2022/09/22 07:38:50;;;;;;;29.10;20.17;;;;;;;17.28;50.67;102419.88;6126262;23;20037;-36
2022/09/22 07:41:20;;;;;;;27.38;19.52;;;;;;;17.27;50.82;102419.00;6130803;23;20040;-36
2022/09/22 07:43:48;;;;;;;33.50;21.88;;;;;;;17.17;51.64;102426.81;6134034;23;20012;-37
2022/09/22 07:46:13;;;;;;;27.65;19.70;;;;;;;17.18;51.95;102425.94;6133743;23;20029;-36
2022/09/22 07:48:42;;;;;;;32.67;19.65;;;;;;;17.18;52.14;102429.47;6127854;23;20022;-36
2022/09/22 07:51:09;;;;;;;27.88;18.92;;;;;;;16.93;52.07;102417.75;6135062;23;20010;-37
2022/09/22 07:53:36;;;;;;;25.75;18.80;;;;;;;16.96;52.07;102423.03;6129520;23;20441;-38
2022/09/22 07:56:03;;;;;;;30.08;18.30;;;;;;;17.21;52.06;102418.06;6134708;23;20337;-37
2022/09/22 07:58:29;;;;;;;27.33;18.83;;;;;;;17.20;52.27;102416.31;6133219;23;20005;-38
2022/09/22 08:00:55;;;;;;;26.27;18.42;;;;;;;17.17;51.93;102421.53;6131451;23;20031;-37
2022/09/22 08:03:20;;;;;;;29.08;19.08;;;;;;;17.42;51.86;102418.28;6136921;23;20749;-37
2022/09/22 08:05:51;;;;;;;26.48;18.20;;;;;;;17.23;51.56;102413.69;6133198;23;20103;-38
2022/09/22 08:08:16;;;;;;;27.10;18.48;;;;;;;17.42;51.68;102411.25;6131111;23;20109;-36
2022/09/22 08:10:41;;;;;;;29.45;18.75;;;;;;;17.41;51.50;102408.59;6129892;23;20089;-37
2022/09/22 08:13:08;;;;;;;29.48;18.60;;;;;;;17.62;51.82;102405.31;6135059;23;20016;-37
2022/09/22 08:15:34;;;;;;;31.73;20.08;;;;;;;17.59;51.52;102407.88;6134542;23;20009;-37
2022/09/22 08:18:02;;;;;;;26.02;18.48;;;;;;;17.61;51.89;102403.56;6129683;23;20017;-36
2022/09/22 08:20:28;;;;;;;28.33;17.88;;;;;;;17.86;51.12;102404.63;6133491;23;20005;-37
2022/09/22 08:22:56;;;;;;;24.13;16.17;;;;;;;17.86;51.49;102412.56;6126425;23;20010;-37
2022/09/22 08:25:24;;;;;;;26.02;16.88;;;;;;;17.76;50.83;102408.94;6132033;23;20005;-37
2022/09/22 08:27:49;;;;;;;21.83;16.35;;;;;;;17.98;50.49;102400.34;6131921;23;20044;-35
2022/09/22 08:30:16;;;;;;;24.25;17.65;;;;;;;17.84;50.73;102397.59;6111638;23;20041;-35
2022/09/22 08:32:41;;;;;;;22.55;16.90;;;;;;;18.04;50.77;102396.84;6129278;23;20464;-36
2022/09/22 08:35:07;;;;;;;24.75;16.92;;;;;;;18.03;50.07;102403.88;6128391;23;20013;-35
2022/09/22 08:37:34;;;;;;;24.35;17.65;;;;;;;18.38;49.27;102398.81;6132689;23;20489;-37
2022/09/22 08:40:00;;;;;;;23.98;16.27;;;;;;;18.57;49.73;102394.53;6132242;23;20013;-37
2022/09/22 08:42:27;;;;;;;23.38;16.40;;;;;;;18.41;50.72;102405.88;6129551;23;20632;-36
2022/09/22 08:45:27;;;;;;;23.00;16.77;;;;;;;18.63;49.76;102394.56;6130971;23;20012;-38
2022/09/22 08:53:39;;;;;;;23.40;14.93;;;;;;;18.86;49.43;102397.28;6128736;23;20043;-37
2022/09/22 08:56:16;;;;;;;22.83;14.43;;;;;;;18.44;48.10;102390.94;6134351;23;20002;-37
2022/09/22 08:58:58;;;;;;;24.65;15.40;;;;;;;18.43;48.24;102393.56;6125716;23;20013;-37
2022/09/22 09:01:45;;;;;;;20.77;13.82;;;;;;;18.99;48.95;102391.19;6132791;23;20073;-36
2022/09/22 09:04:56;;;;;;;20.25;14.95;;;;;;;18.83;49.45;102389.38;6133947;23;20012;-38
2022/09/22 09:07:27;;;;;;;19.70;15.48;;;;;;;18.84;49.43;102393.78;6085019;23;20071;-38
2022/09/22 09:10:14;;;;;;;23.95;15.15;;;;;;;18.82;48.60;102392.88;6131471;23;20006;-37
2022/09/22 09:12:49;;;;;;;22.23;15.27;;;;;;;18.70;49.95;102395.47;6125377;23;20021;-37
2022/09/22 09:15:20;;;;;;;24.92;14.80;;;;;;;19.02;48.84;102393.84;6134097;23;20013;-37
2022/09/22 09:17:47;;;;;;;20.02;14.00;;;;;;;19.03;47.80;102403.50;6128579;23;20076;-36
2022/09/22 09:20:34;;;;;;;18.40;12.82;;;;;;;19.23;48.09;102406.22;6131388;23;20503;-37
2022/09/22 09:23:03;;;;;;;19.85;13.80;;;;;;;19.08;47.71;102400.91;6129243;23;20062;-36
2022/09/22 09:25:35;;;;;;;20.38;13.70;;;;;;;18.46;49.30;102405.03;6132859;23;20005;-36
2022/09/22 09:28:05;;;;;;;19.73;13.52;;;;;;;19.26;46.82;102407.13;6132222;23;20116;-37
2022/09/22 09:30:40;;;;;;;19.70;12.43;;;;;;;19.39;46.21;102406.22;6124399;23;20120;-37
2022/09/22 09:33:31;;;;;;;17.02;12.55;;;;;;;19.51;46.09;102401.91;6132153;23;20077;-38
2022/09/22 09:35:57;;;;;;;16.10;11.30;;;;;;;19.70;44.79;102406.31;6119302;23;20020;-37
2022/09/22 09:38:30;;;;;;;19.15;10.98;;;;;;;19.91;44.75;102398.34;6130510;23;20020;-37
2022/09/22 09:41:10;;;;;;;15.50;11.38;;;;;;;20.00;44.46;102400.13;6128580;23;20035;-35
2022/09/22 09:43:36;;;;;;;18.20;10.52;;;;;;;19.70;44.52;102407.16;6130945;23;20081;-36
2022/09/22 09:46:23;;;;;;;13.75;9.23;;;;;;;19.72;44.92;102400.13;6131770;23;20445;-36
2022/09/22 09:48:59;;;;;;;13.85;10.43;;;;;;;19.72;45.29;102413.34;6127713;23;20010;-37
2022/09/22 09:51:25;;;;;;;14.32;10.40;;;;;;;20.01;45.49;102396.56;6133988;23;20048;-36
2022/09/22 09:53:53;;;;;;;13.15;9.07;;;;;;;19.71;43.73;102389.53;6128499;23;20404;-36
2022/09/22 09:56:27;;;;;;;13.40;7.18;;;;;;;20.15;42.69;102394.78;6130165;23;20080;-37
2022/09/22 10:01:49;;;;;;;12.75;8.07;;;;;;;20.31;41.38;102388.56;6128701;23;20105;-36
2022/09/22 10:04:32;;;;;;;14.18;9.20;;;;;;;20.34;41.07;102380.66;6106322;23;20033;-38
2022/09/22 10:07:16;;;;;;;14.80;9.60;;;;;;;20.55;40.44;102374.41;6130203;23;20008;-37
2022/09/22 10:09:43;;;;;;;14.52;8.90;;;;;;;20.39;42.45;102375.34;6127326;23;20005;-36
2022/09/22 10:12:26;;;;;;;14.80;9.20;;;;;;;19.70;42.37;102375.41;6130086;23;20603;-37
2022/09/22 10:14:55;;;;;;;11.10;7.82;;;;;;;20.02;42.20;102371.84;6127124;23;20037;-36
2022/09/22 10:17:29;;;;;;;12.60;7.30;;;;;;;20.18;41.58;102366.56;6128189;23;20016;-37
2022/09/22 10:20:17;;;;;;;9.65;6.05;;;;;;;20.52;40.63;102369.09;6131331;23;20005;-37
2022/09/22 10:22:42;;;;;;;10.20;6.22;;;;;;;20.77;41.51;102367.22;6090710;23;20726;-37
2022/09/22 10:25:20;;;;;;;10.60;7.10;;;;;;;20.53;39.40;102362.94;6127970;23;20033;-40
2022/09/22 10:28:03;;;;;;;11.63;7.28;;;;;;;20.67;39.50;102362.88;6121843;23;20330;-38
2022/09/22 10:30:36;;;;;;;12.80;7.70;;;;;;;20.48;41.11;102356.78;6124400;23;20013;-38
2022/09/22 10:33:20;;;;;;;13.30;8.20;;;;;;;20.64;41.09;102347.84;6125778;23;20696;-38
2022/09/22 10:35:54;;;;;;;10.73;7.32;;;;;;;20.68;42.16;102357.53;6129238;23;20024;-35
2022/09/22 10:38:25;;;;;;;13.45;8.55;;;;;;;20.47;40.79;102347.06;6106384;23;20020;-37
2022/09/22 10:40:59;;;;;;;11.02;8.15;;;;;;;20.64;42.13;102354.03;6117983;23;20064;-37
2022/09/22 10:43:35;;;;;;;12.03;8.40;;;;;;;20.91;40.71;102342.41;6119563;23;20014;-36
2022/09/22 10:46:27;;;;;;;13.15;8.55;;;;;;;20.88;40.38;102336.22;6129451;23;20696;-36
2022/09/22 10:48:54;;;;;;;11.43;7.50;;;;;;;20.54;40.58;102332.91;6098534;23;20013;-37
2022/09/22 10:51:44;;;;;;;10.02;6.75;;;;;;;21.01;40.51;102329.97;6131978;23;20010;-37
2022/09/22 10:54:40;;;;;;;16.10;8.05;;;;;;;20.57;40.60;102335.50;6130592;23;20104;-37
2022/09/22 10:57:23;;;;;;;9.48;6.70;;;;;;;20.87;38.58;102335.34;6131794;23;20024;-38
2022/09/22 11:00:11;;;;;;;11.85;8.02;;;;;;;20.85;40.25;102328.31;6127753;23;20057;-37
2022/09/22 11:02:54;;;;;;;16.13;8.90;;;;;;;20.83;41.08;102328.31;6131836;23;20338;-36
2022/09/22 11:14:37;;;;;;;11.13;5.50;;;;;;;20.87;38.85;102319.44;6125376;23;20119;-38
2022/09/22 11:17:26;;;;;;;9.20;4.47;;;;;;;21.19;38.49;102318.38;6122977;23;20084;-37
2022/09/22 11:20:06;;;;;;;9.57;5.00;;;;;;;21.19;38.05;102316.63;6127172;23;20145;-37
2022/09/22 11:23:05;;;;;;;11.55;3.92;;;;;;;21.45;38.38;102324.38;6129965;23;20024;-38
2022/09/22 11:25:42;;;;;;;7.22;3.75;;;;;;;21.02;37.76;102319.38;6125728;23;20106;-37
2022/09/22 11:28:11;;;;;;;8.77;3.92;;;;;;;21.10;38.82;102316.66;6131069;23;20447;-36
2022/09/22 11:30:44;;;;;;;7.15;4.40;;;;;;;21.34;37.58;102305.91;6126260;23;20428;-37
2022/09/22 11:33:25;;;;;;;5.88;3.45;;;;;;;21.41;37.87;102306.69;6133877;23;20060;-36
2022/09/22 11:36:19;;;;;;;7.38;4.10;;;;;;;21.28;37.00;102305.06;6127983;23;20024;-37
2022/09/22 11:39:08;;;;;;;8.10;4.00;;;;;;;21.25;38.05;102300.66;6126958;23;20009;-38
2022/09/22 11:41:54;;;;;;;7.65;3.50;;;;;;;21.24;37.82;102290.94;6130090;23;20089;-36
2022/09/22 11:44:25;;;;;;;10.35;3.22;;;;;;;21.37;38.67;102289.06;6131965;23;20097;-36
2022/09/22 11:47:19;;;;;;;5.85;2.75;;;;;;;21.50;38.08;102274.78;6126732;23;20749;-35
2022/09/22 11:50:03;;;;;;;6.18;3.10;;;;;;;21.68;37.96;102273.72;6135130;23;20017;-38
2022/09/22 11:52:54;;;;;;;4.78;2.80;;;;;;;21.70;37.49;102269.28;6133408;23;20469;-41